createdAt,value
2022-11-21T00:01:17.587Z,1.33
2022-11-21T00:03:44.640Z,1.23
2022-11-21T00:06:11.616Z,2.20
2022-11-21T00:08:38.722Z,1.60
2022-11-21T00:11:05.684Z,1.63
2022-11-21T00:13:33.530Z,1.57
2022-11-21T00:16:06.600Z,1.13
2022-11-21T00:18:35.558Z,1.43
2022-11-21T00:21:18.179Z,1.80
2022-11-21T00:23:46.864Z,2.10
2022-11-21T00:26:16.240Z,1.20
2022-11-21T00:28:43.378Z,1.40
2022-11-21T00:31:22.759Z,1.70
2022-11-21T00:33:49.917Z,1.80
2022-11-21T00:36:17.347Z,1.97
2022-11-21T00:38:44.500Z,1.30
2022-11-21T00:41:11.440Z,3.10
2022-11-21T00:43:38.622Z,1.83
2022-11-21T00:46:05.578Z,1.43
2022-11-21T00:48:33.036Z,2.03
2022-11-21T00:51:01.065Z,1.30
2022-11-21T00:53:29.333Z,0.83
2022-11-21T00:55:56.565Z,1.27
2022-11-21T00:58:23.686Z,1.80
2022-11-21T01:00:50.914Z,1.70
2022-11-21T01:03:17.891Z,1.30
2022-11-21T01:05:45.666Z,1.20
2022-11-21T01:08:12.620Z,1.20
2022-11-21T01:10:39.735Z,1.70
2022-11-21T01:13:06.708Z,1.30
2022-11-21T01:15:34.719Z,1.80
2022-11-21T01:18:01.622Z,1.87
2022-11-21T01:20:29.585Z,1.17
2022-11-21T01:22:56.524Z,1.30
2022-11-21T01:25:23.779Z,2.20
2022-11-21T01:27:50.683Z,1.30
2022-11-21T01:30:17.811Z,2.27
2022-11-21T01:32:49.619Z,2.33
2022-11-21T01:35:17.873Z,1.43
2022-11-21T01:37:49.053Z,1.60
2022-11-21T01:40:16.612Z,1.10
2022-11-21T01:43:02.642Z,1.20
2022-11-21T01:45:58.355Z,1.30
2022-11-21T01:48:34.804Z,1.13
2022-11-21T01:51:08.332Z,1.43
2022-11-21T01:53:36.006Z,1.60
2022-11-21T01:56:03.834Z,1.47
2022-11-21T01:58:33.538Z,2.00
2022-11-21T02:01:01.894Z,1.50
2022-11-21T02:03:33.772Z,1.33
2022-11-21T02:06:01.322Z,1.17
2022-11-21T02:08:28.966Z,1.17
2022-11-21T02:11:17.645Z,1.40
2022-11-21T02:13:44.652Z,1.27
2022-11-21T02:16:12.089Z,1.10
2022-11-21T02:18:39.493Z,1.20
2022-11-21T02:21:24.070Z,1.23
2022-11-21T02:24:20.323Z,2.23
2022-11-21T02:26:48.937Z,1.10
2022-11-21T02:29:16.840Z,1.53
2022-11-21T02:31:43.759Z,1.47
2022-11-21T02:34:10.679Z,1.63
2022-11-21T02:36:48.404Z,1.50
2022-11-21T02:39:33.843Z,1.37
2022-11-21T02:42:15.182Z,1.23
2022-11-21T02:44:57.604Z,1.83
2022-11-21T02:47:25.891Z,1.10
2022-11-21T02:50:25.548Z,1.30
2022-11-21T02:52:52.488Z,1.20
2022-11-21T02:55:19.536Z,1.30
2022-11-21T02:57:46.935Z,1.20
2022-11-21T03:00:14.570Z,1.23
2022-11-21T03:02:41.712Z,1.30
2022-11-21T03:05:12.781Z,2.10
2022-11-21T03:07:40.071Z,1.33
2022-11-21T03:10:08.142Z,1.60
2022-11-21T03:12:39.696Z,1.30
2022-11-21T03:15:10.446Z,1.30
2022-11-21T03:17:37.971Z,1.40
2022-11-21T03:20:06.468Z,1.27
2022-11-21T03:22:34.170Z,1.37
2022-11-21T03:25:01.233Z,1.60
2022-11-21T03:27:28.331Z,1.27
2022-11-21T03:29:55.533Z,1.17
2022-11-21T03:32:22.450Z,1.30
2022-11-21T03:34:49.566Z,1.40
2022-11-21T03:37:17.084Z,1.10
2022-11-21T03:39:44.106Z,1.17
2022-11-21T03:42:11.011Z,1.43
2022-11-21T03:44:38.151Z,0.93
2022-11-21T03:47:05.095Z,1.20
2022-11-21T03:49:32.204Z,1.03
2022-11-21T03:51:59.185Z,1.90
2022-11-21T03:54:26.621Z,1.33
2022-11-21T03:56:54.280Z,1.90
2022-11-21T03:59:21.210Z,1.03
2022-11-21T04:01:48.339Z,0.87
2022-11-21T04:04:15.524Z,1.13
2022-11-21T04:06:42.449Z,1.10
2022-11-21T04:09:12.100Z,0.90
2022-11-21T04:11:39.093Z,1.23
2022-11-21T04:14:06.240Z,1.30
2022-11-21T04:16:33.330Z,1.50
2022-11-21T04:19:00.520Z,1.20
2022-11-21T04:21:28.294Z,1.40
2022-11-21T04:23:55.343Z,0.93
2022-11-21T04:26:22.463Z,1.17
2022-11-21T04:28:49.429Z,1.70
2022-11-21T04:31:16.544Z,1.23
2022-11-21T04:33:43.801Z,1.37
2022-11-21T04:36:13.927Z,1.10
2022-11-21T04:38:40.893Z,1.57
2022-11-21T04:41:07.984Z,2.30
2022-11-21T04:43:34.924Z,1.50
2022-11-21T04:46:02.059Z,1.13
2022-11-21T04:48:29.188Z,1.27
2022-11-21T04:50:56.112Z,1.20
2022-11-21T04:53:23.192Z,1.63
2022-11-21T04:55:50.483Z,1.03
2022-11-21T04:58:17.430Z,1.20
2022-11-21T05:00:44.515Z,1.40
2022-11-21T05:03:11.662Z,1.47
2022-11-21T05:05:38.652Z,1.33
2022-11-21T05:08:05.938Z,1.20
2022-11-21T05:10:52.887Z,1.70
2022-11-21T05:13:22.621Z,0.93
2022-11-21T05:15:55.967Z,2.20
2022-11-21T05:18:23.167Z,1.13
2022-11-21T05:20:50.136Z,1.27
2022-11-21T05:23:17.036Z,1.83
2022-11-21T05:25:44.317Z,1.57
2022-11-21T05:28:11.411Z,1.17
2022-11-21T05:30:38.706Z,1.00
2022-11-21T05:33:06.050Z,1.80
2022-11-21T05:35:33.159Z,1.30
2022-11-21T05:38:00.196Z,1.00
2022-11-21T05:40:27.194Z,0.93
2022-11-21T05:43:12.941Z,1.00
2022-11-21T05:45:39.960Z,1.40
2022-11-21T05:48:09.764Z,0.87
2022-11-21T05:50:37.285Z,1.10
2022-11-21T05:53:05.367Z,1.57
2022-11-21T05:55:35.046Z,1.10
2022-11-21T05:58:02.479Z,0.83
2022-11-21T06:00:29.564Z,1.40
2022-11-21T06:03:16.269Z,1.60
2022-11-21T06:05:43.480Z,1.10
2022-11-21T06:08:10.611Z,0.80
2022-11-21T06:10:37.552Z,0.80
2022-11-21T06:13:21.855Z,0.90
2022-11-21T06:15:58.299Z,0.80
2022-11-21T06:18:25.848Z,1.20
2022-11-21T06:20:52.906Z,0.80
2022-11-21T06:23:20.035Z,1.13
2022-11-21T06:25:47.185Z,1.67
2022-11-21T06:28:14.117Z,1.23
2022-11-21T06:30:41.005Z,1.13
2022-11-21T06:33:08.198Z,1.20
2022-11-21T06:35:38.869Z,0.77
2022-11-21T06:38:05.942Z,1.50
2022-11-21T06:40:33.133Z,1.30
2022-11-21T06:43:00.298Z,0.73
2022-11-21T06:45:27.806Z,1.10
2022-11-21T06:47:55.533Z,1.63
2022-11-21T06:50:22.739Z,1.10
2022-11-21T06:52:49.767Z,1.50
2022-11-21T06:55:16.821Z,1.53
2022-11-21T06:57:43.913Z,0.90
2022-11-21T07:00:14.839Z,3.33
2022-11-21T07:02:42.027Z,1.77
2022-11-21T07:05:09.364Z,1.43
2022-11-21T07:07:36.330Z,1.00
2022-11-21T07:10:03.860Z,1.50
2022-11-21T07:12:49.186Z,1.37
2022-11-21T07:15:16.333Z,1.57
2022-11-21T07:17:43.325Z,1.00
2022-11-21T07:20:11.340Z,1.00
2022-11-21T07:22:38.583Z,1.23
2022-11-21T07:25:06.041Z,1.47
2022-11-21T07:27:33.225Z,2.47
2022-11-21T07:30:00.118Z,1.77
2022-11-21T07:32:28.178Z,1.77
2022-11-21T07:34:55.232Z,1.80
2022-11-21T07:37:22.207Z,1.63
2022-11-21T07:39:49.360Z,2.00
2022-11-21T07:42:16.264Z,2.77
2022-11-21T07:44:43.346Z,2.20
2022-11-21T07:47:10.404Z,1.60
2022-11-21T07:49:37.443Z,1.63
2022-11-21T07:52:04.623Z,2.23
2022-11-21T07:54:31.580Z,1.70
2022-11-21T07:56:58.660Z,1.20
2022-11-21T07:59:25.701Z,2.10
2022-11-21T08:01:52.805Z,2.10
2022-11-21T08:04:19.971Z,1.80
2022-11-21T08:06:47.149Z,2.40
2022-11-21T08:09:14.064Z,1.97
2022-11-21T08:11:41.163Z,1.93
2022-11-21T08:14:08.131Z,1.53
2022-11-21T08:16:35.059Z,1.60
2022-11-21T08:19:02.590Z,1.70
2022-11-21T08:21:29.597Z,1.50
2022-11-21T08:23:56.677Z,1.90
2022-11-21T08:26:23.656Z,1.87
2022-11-21T08:28:53.253Z,2.13
2022-11-21T08:31:22.873Z,1.83
2022-11-21T08:33:49.892Z,1.60
2022-11-21T08:36:17.154Z,2.00
2022-11-21T08:38:44.056Z,2.87
2022-11-21T08:41:31.261Z,2.17
2022-11-21T08:43:58.238Z,1.43
2022-11-21T08:46:27.971Z,1.70
2022-11-21T08:52:07.240Z,2.57
2022-11-21T08:54:35.439Z,2.33
2022-11-21T08:57:02.424Z,2.47
2022-11-21T08:59:29.547Z,1.87
2022-11-21T09:01:57.437Z,1.83
2022-11-21T09:04:24.371Z,2.03
2022-11-21T09:06:51.304Z,2.03
2022-11-21T09:09:22.225Z,2.40
2022-11-21T09:11:52.574Z,1.50
2022-11-21T09:14:37.981Z,1.90
2022-11-21T09:17:25.233Z,2.23
2022-11-21T09:19:52.484Z,2.20
2022-11-21T09:22:19.425Z,2.30
2022-11-21T09:24:47.001Z,1.70
2022-11-21T09:27:13.955Z,1.70
2022-11-21T09:29:41.231Z,1.37
2022-11-21T09:32:08.160Z,1.20
2022-11-21T09:34:35.056Z,2.17
2022-11-21T09:37:02.130Z,1.50
2022-11-21T09:39:29.453Z,2.13
2022-11-21T09:42:13.545Z,1.50
2022-11-21T09:45:09.228Z,1.87
2022-11-21T09:47:51.761Z,1.70
2022-11-21T09:50:29.798Z,1.73
2022-11-21T09:53:10.163Z,1.90
2022-11-21T09:56:00.237Z,2.03
2022-11-21T09:58:49.171Z,1.70
2022-11-21T10:01:17.643Z,2.00
2022-11-21T10:03:48.050Z,1.87
2022-11-21T10:06:24.329Z,1.60
2022-11-21T10:09:48.604Z,1.90
2022-11-21T10:12:37.612Z,1.90
2022-11-21T10:15:44.693Z,2.50
2022-11-21T10:19:08.847Z,1.43
2022-11-21T10:22:26.227Z,0.97
2022-11-21T10:25:06.627Z,2.07
2022-11-21T10:27:50.310Z,1.70
2022-11-21T10:30:22.662Z,1.67
2022-11-21T10:32:58.726Z,2.40
2022-11-21T10:35:43.899Z,1.80
2022-11-21T10:38:22.840Z,1.23
2022-11-21T10:40:55.563Z,1.50
2022-11-21T10:44:38.363Z,1.40
2022-11-21T10:47:28.931Z,1.87
2022-11-21T10:50:14.855Z,1.47
2022-11-21T10:52:50.692Z,1.40
2022-11-21T10:55:18.647Z,2.30
2022-11-21T10:57:51.036Z,1.57
2022-11-21T11:00:27.099Z,1.10
2022-11-21T11:02:57.030Z,1.57
2022-11-21T11:05:29.960Z,1.87
2022-11-21T11:08:12.315Z,1.53
2022-11-21T11:11:07.925Z,1.40
2022-11-21T11:14:05.539Z,1.57
2022-11-21T11:16:41.472Z,1.27
2022-11-21T11:19:14.789Z,1.10
2022-11-21T11:21:44.473Z,0.90
2022-11-21T11:24:11.263Z,1.30
2022-11-21T11:26:49.371Z,1.53
2022-11-21T11:29:23.933Z,1.30
2022-11-21T11:32:21.728Z,0.97
2022-11-21T11:35:09.316Z,1.20
2022-11-21T11:37:42.755Z,0.80
2022-11-21T11:40:30.396Z,1.47
2022-11-21T11:44:10.447Z,1.17
2022-11-21T11:47:32.232Z,1.23
2022-11-21T11:50:18.290Z,0.87
2022-11-21T11:53:15.332Z,1.50
2022-11-21T11:56:18.264Z,1.13
2022-11-21T11:59:12.279Z,0.83
2022-11-21T12:02:01.027Z,1.07
2022-11-21T12:04:37.904Z,1.80
2022-11-21T12:10:59.961Z,1.80
2022-11-21T12:13:29.912Z,1.50
2022-11-21T12:16:08.509Z,1.50
2022-11-21T12:18:51.624Z,0.90
2022-11-21T12:21:19.727Z,1.53
2022-11-21T12:23:57.935Z,1.30
2022-11-21T12:26:43.199Z,0.80
2022-11-21T12:29:24.143Z,0.97
2022-11-21T12:32:21.363Z,2.10
2022-11-21T12:35:18.987Z,1.40
2022-11-21T12:38:19.153Z,2.30
2022-11-21T12:41:35.798Z,1.80
2022-11-21T12:44:24.239Z,1.57
2022-11-21T12:47:12.373Z,1.90
2022-11-21T12:50:39.800Z,1.27
2022-11-21T12:53:41.252Z,1.30
2022-11-21T12:56:28.429Z,2.13
2022-11-21T12:58:57.356Z,0.80
2022-11-21T13:02:03.639Z,1.93
2022-11-21T13:04:40.200Z,1.20
2022-11-21T13:07:08.497Z,1.80
2022-11-21T13:09:43.415Z,1.20
2022-11-21T13:12:22.428Z,1.27
2022-11-21T13:15:05.378Z,1.30
2022-11-21T13:17:32.310Z,1.27
2022-11-21T13:20:30.747Z,1.07
2022-11-21T13:23:06.394Z,3.27
2022-11-21T13:25:33.948Z,1.17
2022-11-21T13:28:19.294Z,2.20
2022-11-21T13:30:53.435Z,1.40
2022-11-21T13:33:35.798Z,1.27
2022-11-21T13:36:31.965Z,1.07
2022-11-21T13:38:59.276Z,1.47
2022-11-21T13:41:53.762Z,1.17
2022-11-21T13:44:44.415Z,1.23
2022-11-21T13:47:26.700Z,1.07
2022-11-21T13:50:34.407Z,0.90
2022-11-21T13:53:38.816Z,1.30
2022-11-21T13:56:16.516Z,1.23
2022-11-21T13:59:27.348Z,1.43
2022-11-21T14:02:29.782Z,1.43
2022-11-21T14:05:39.783Z,1.10
2022-11-21T14:08:20.508Z,1.30
2022-11-21T14:10:50.201Z,1.47
2022-11-21T14:13:37.943Z,1.23
2022-11-21T14:16:41.204Z,1.20
2022-11-21T14:19:23.456Z,1.27
2022-11-21T14:21:50.573Z,1.50
2022-11-21T14:24:19.726Z,1.73
2022-11-21T14:26:50.815Z,1.83
2022-11-21T14:29:37.161Z,2.67
2022-11-21T14:32:16.477Z,1.60
2022-11-21T14:34:43.513Z,1.80
2022-11-21T14:37:13.484Z,3.83
2022-11-21T14:39:44.830Z,1.97
2022-11-21T14:42:16.586Z,1.17
2022-11-21T14:44:44.239Z,1.77
2022-11-21T14:47:23.479Z,1.63
2022-11-21T14:49:56.978Z,1.60
2022-11-21T14:52:34.760Z,2.97
2022-11-21T14:55:29.181Z,2.27
2022-11-21T14:57:54.861Z,2.47
2022-11-21T15:03:22.823Z,2.30
2022-11-21T15:06:05.280Z,3.40
2022-11-21T15:11:27.792Z,2.23
2022-11-21T15:14:17.543Z,3.20
2022-11-21T15:16:49.771Z,2.47
2022-11-21T15:19:27.685Z,2.20
2022-11-21T15:21:58.137Z,2.87
2022-11-21T15:24:43.595Z,1.80
2022-11-21T15:27:28.326Z,1.70
2022-11-21T15:30:24.845Z,2.07
2022-11-21T15:33:21.912Z,2.10
2022-11-21T15:35:56.692Z,2.37
2022-11-21T15:38:40.327Z,2.20
2022-11-21T15:41:10.486Z,1.47
2022-11-21T15:43:48.676Z,1.70
2022-11-21T15:46:27.028Z,2.13
2022-11-21T15:49:31.581Z,1.83
2022-11-21T15:52:10.609Z,1.90
2022-11-21T15:54:38.086Z,3.23
2022-11-21T15:57:05.403Z,1.57
2022-11-21T15:59:32.609Z,1.23
2022-11-21T16:01:59.708Z,1.30
2022-11-21T16:04:27.403Z,3.67
2022-11-21T16:06:55.231Z,4.40
2022-11-21T16:09:22.778Z,4.83
2022-11-21T16:11:49.939Z,5.43
2022-11-21T16:14:18.418Z,4.77
2022-11-21T16:16:47.548Z,5.50
2022-11-21T16:19:15.868Z,5.27
2022-11-21T16:21:43.223Z,5.20
2022-11-21T16:24:10.512Z,4.97
2022-11-21T16:26:37.660Z,3.80
2022-11-21T16:29:05.846Z,3.93
2022-11-21T16:31:34.116Z,4.87
2022-11-21T16:34:01.218Z,5.43
2022-11-21T16:36:32.678Z,4.50
2022-11-21T16:39:08.912Z,5.07
2022-11-21T16:41:39.450Z,4.90
2022-11-21T16:44:16.129Z,4.80
2022-11-21T16:46:47.322Z,4.87
2022-11-21T16:49:15.197Z,3.97
2022-11-21T16:51:46.030Z,4.50
2022-11-21T16:54:13.272Z,5.40
2022-11-21T16:56:40.692Z,4.40
2022-11-21T16:59:07.673Z,3.50
2022-11-21T17:01:35.034Z,4.57
2022-11-21T17:04:02.633Z,4.27
2022-11-21T17:06:31.066Z,3.90
2022-11-21T17:09:02.258Z,4.43
2022-11-21T17:11:31.512Z,5.67
2022-11-21T17:14:06.312Z,3.97
2022-11-21T17:16:35.754Z,5.00
2022-11-21T17:19:05.996Z,4.60
2022-11-21T17:21:34.000Z,5.23
2022-11-21T17:24:00.950Z,4.67
2022-11-21T17:26:29.759Z,5.10
2022-11-21T17:29:00.248Z,5.33
2022-11-21T17:31:27.914Z,4.70
2022-11-21T17:33:58.675Z,4.77
2022-11-21T17:36:28.676Z,5.80
2022-11-21T17:38:56.221Z,6.67
2022-11-21T17:41:25.199Z,6.00
2022-11-21T17:43:58.008Z,7.43
2022-11-21T17:46:26.115Z,7.17
2022-11-21T17:48:58.445Z,7.67
2022-11-21T17:51:34.327Z,6.93
2022-11-21T17:54:02.861Z,7.30
2022-11-21T17:56:33.487Z,7.03
2022-11-21T17:59:01.291Z,6.60
2022-11-21T18:01:29.002Z,6.13
2022-11-21T18:04:02.592Z,6.47
2022-11-21T18:06:38.684Z,7.63
2022-11-21T18:09:07.716Z,9.83
2022-11-21T18:11:39.949Z,7.00
2022-11-21T18:14:10.842Z,6.33
2022-11-21T18:16:39.774Z,5.60
2022-11-21T18:19:07.419Z,5.83
2022-11-21T18:21:38.713Z,3.10
2022-11-21T18:24:06.351Z,3.53
2022-11-21T18:26:37.852Z,3.90
2022-11-21T18:31:56.093Z,1.30
2022-11-21T18:34:23.069Z,1.00
2022-11-21T18:36:50.177Z,1.27
2022-11-21T18:39:17.725Z,1.10
2022-11-21T18:41:44.904Z,1.20
2022-11-21T18:44:20.107Z,0.90
2022-11-21T18:46:48.699Z,1.03
2022-11-21T18:49:15.754Z,1.20
2022-11-21T18:51:42.640Z,0.90
2022-11-21T18:54:11.074Z,1.27
2022-11-21T18:56:40.218Z,1.67
2022-11-21T18:59:07.504Z,1.57
2022-11-21T19:01:36.679Z,2.23
2022-11-21T19:04:04.277Z,1.30
2022-11-21T19:06:31.694Z,1.40
2022-11-21T19:08:59.174Z,1.23
2022-11-21T19:11:30.259Z,1.30
2022-11-21T19:14:00.335Z,1.30
2022-11-21T19:16:31.302Z,1.37
2022-11-21T19:21:47.025Z,1.23
2022-11-21T19:24:16.286Z,1.10
2022-11-21T19:26:43.487Z,1.07
2022-11-21T19:29:11.363Z,1.20
2022-11-21T19:31:44.731Z,1.17
2022-11-21T19:34:16.161Z,0.93
2022-11-21T19:36:44.254Z,0.90
2022-11-21T19:39:11.999Z,0.90
2022-11-21T19:41:39.119Z,1.13
2022-11-21T19:44:06.370Z,1.00
2022-11-21T19:46:37.336Z,0.90
2022-11-21T19:49:05.640Z,1.00
2022-11-21T19:51:39.166Z,1.10
2022-11-21T19:54:10.265Z,1.00
2022-11-21T19:56:37.273Z,0.80
2022-11-21T19:59:04.905Z,1.10
2022-11-21T20:01:34.477Z,1.40
2022-11-21T20:04:04.735Z,1.20
2022-11-21T20:06:41.591Z,0.80
2022-11-21T20:09:22.131Z,1.00
2022-11-21T20:11:52.171Z,0.87
2022-11-21T20:14:22.361Z,0.90
2022-11-21T20:16:51.425Z,1.33
2022-11-21T20:19:20.498Z,0.83
2022-11-21T20:21:47.821Z,0.60
2022-11-21T20:24:16.355Z,0.83
2022-11-21T20:26:43.496Z,0.60
2022-11-21T20:29:15.913Z,0.50
2022-11-21T20:31:43.180Z,0.53
2022-11-21T20:34:13.131Z,0.80
2022-11-21T20:36:40.304Z,0.50
2022-11-21T20:39:16.254Z,0.50
2022-11-21T20:41:43.830Z,0.60
2022-11-21T20:47:06.865Z,0.50
2022-11-21T20:49:34.603Z,0.50
2022-11-21T20:54:48.628Z,0.47
2022-11-21T20:57:15.852Z,0.60
2022-11-21T20:59:43.667Z,0.70
2022-11-21T21:02:14.697Z,0.77
2022-11-21T21:04:42.415Z,0.63
2022-11-21T21:07:09.768Z,0.40
2022-11-21T21:09:36.806Z,0.53
2022-11-21T21:12:05.580Z,0.60
2022-11-21T21:14:32.552Z,0.60
2022-11-21T21:16:59.483Z,0.60
2022-11-21T21:19:26.698Z,0.70
2022-11-21T21:21:53.906Z,1.03
2022-11-21T21:24:21.632Z,0.60
2022-11-21T21:26:49.728Z,0.57
2022-11-21T21:29:20.035Z,0.53
2022-11-21T21:31:51.752Z,0.53
2022-11-21T21:34:20.931Z,0.50
2022-11-21T21:36:49.164Z,0.60
2022-11-21T21:39:16.162Z,0.70
2022-11-21T21:41:47.065Z,0.53
2022-11-21T21:44:15.768Z,0.60
2022-11-21T21:46:43.261Z,0.60
2022-11-21T21:49:10.667Z,0.63
2022-11-21T21:51:38.105Z,0.80
2022-11-21T21:54:07.404Z,1.10
2022-11-21T21:56:34.382Z,1.00
2022-11-21T21:59:01.352Z,0.67
2022-11-21T22:01:31.358Z,0.60
2022-11-21T22:04:03.732Z,0.90
2022-11-21T22:06:33.735Z,0.63
2022-11-21T22:09:01.281Z,0.70
2022-11-21T22:11:31.662Z,0.90
2022-11-21T22:14:05.998Z,0.60
2022-11-21T22:16:33.376Z,0.50
2022-11-21T22:19:00.410Z,0.40
2022-11-21T22:21:34.281Z,0.80
2022-11-21T22:26:52.621Z,0.60
2022-11-21T22:29:19.532Z,0.80
2022-11-21T22:31:46.595Z,1.20
2022-11-21T22:34:14.260Z,0.90
2022-11-21T22:36:41.635Z,0.70
2022-11-21T22:39:09.239Z,1.47
2022-11-21T22:41:36.358Z,1.40
2022-11-21T22:44:03.588Z,0.93
2022-11-21T22:46:31.792Z,0.70
2022-11-21T22:48:59.336Z,0.70
2022-11-21T22:51:29.475Z,0.87
2022-11-21T22:53:57.264Z,0.90
2022-11-21T22:56:25.526Z,0.53
2022-11-21T22:58:52.778Z,1.03
2022-11-21T23:01:22.919Z,1.00
2022-11-21T23:03:50.352Z,1.10
2022-11-21T23:06:20.244Z,0.90
2022-11-21T23:08:48.252Z,0.90
2022-11-21T23:11:19.227Z,0.93
2022-11-21T23:13:47.512Z,0.80
2022-11-21T23:16:15.872Z,2.27
2022-11-21T23:18:43.363Z,1.00
2022-11-21T23:21:12.117Z,0.80
2022-11-21T23:23:39.851Z,1.20
2022-11-21T23:26:07.845Z,0.93
2022-11-21T23:28:35.155Z,0.83
2022-11-21T23:31:02.104Z,1.30
2022-11-21T23:33:29.290Z,1.37
2022-11-21T23:35:56.248Z,1.20
2022-11-21T23:38:23.630Z,0.90
2022-11-21T23:40:50.987Z,1.70
2022-11-21T23:43:18.714Z,1.10
2022-11-21T23:45:54.055Z,1.10
2022-11-21T23:48:21.988Z,1.17
2022-11-21T23:50:51.237Z,1.17
2022-11-21T23:53:19.692Z,1.77
2022-11-21T23:55:47.132Z,1.60
2022-11-21T23:58:15.313Z,1.60
